Lake Charles, LA

4:01 PM CST on February 20, 2017 (GMT -0600)
LCB Academy | | Change Station

Elev 33 ft 30.22 °N, 93.20 °W | Updated 6 minutes ago

Rain
Rain
61.4 °F
Feels Like 61.4 °F
N
8.0
Wind Variable Wind from NNW
Gusts 8.0 mph

Today
High -- | Low -- °F
--% Chance of Precip.
Yesterday
High -- | Low -- °F
Precip. -- in
Pressure 29.94 in
Visibility 3.0 miles
Clouds Scattered Clouds 900 ft
Overcast 4800 ft
Dew Point Not available.
Humidity Not available.
Rainfall 0.20 in
Snow Depth Not available.
6:47 AM 6:05 PM
Waning Crescent, 31% visible
METAR KCWF 202150Z 33014G20KT 3SM RABR SCT009 OVC048 15/15 A2994
Pressure 29.94 in
Visibility 3.0 miles
Clouds Scattered Clouds 900 ft
Overcast 4800 ft
Dew Point Not available.
Humidity Not available.
Rainfall 0.20 in
Snow Depth Not available.
6:47 AM 6:05 PM
Waning Crescent, 31% visible
METAR KCWF 202150Z 33014G20KT 3SM RABR SCT009 OVC048 15/15 A2994

Get Your Daily Forecast Email!

Thanks for signing up!

Be on the lookout for a verification email in your inbox.

You'll start receiving the daily forecast at 8 AM.

×

10-Day Weather Forecast

Almanac

Astronomy

Feb. 20, 2017 Rise Set
Actual Time
Civil Twilight
Nautical Twilight
Astronomical Twilight
Moon
Length of Visible Light
Length of Day
Tomorrow will be .
, % of the Moon is Illuminated

Today's Extremes

State Highs State Lows

Community

WunderPhotos

Upload Photos

1,962,540 photos uploaded!

WunderBlog® & News

Nearby

Air Quality

  Air Quality AQ Index Pollutant
Not available.

Snow Depth

Station Depth Elevation

Earthquake Activity

City Distance Mag. Time & Date
Minimum magnitude displayed is 2.5.

Coastal Water Temperatures

Place Temperature

Stations

Nearby Weather Stations

Station Location Temp. Windchill Dew Point Humidity Wind Precip. Elev Updated Type
                   

Watches & Warnings

There are currently no watches in effect.